Time,TemperatureF,DewpointF,PressureIn,WindDirection,WindDirectionDegrees,WindSpeedMPH,WindSpeedGustMPH,Humidity,HourlyPrecipIn,Conditions,Clouds,dailyrainin,SoftwareType,DateUTC
2013-09-03 00:00:00,59.9,56.0,29.77,WSW,255,0.0,0.0,87,0.00,RA,RA,0.00,WeatherDisplay:10.37,2013-09-03 04:00:00,
2013-09-03 00:01:00,59.9,56.0,29.77,South,180,0.0,0.0,87,0.00,RA,,0.00,WeatherDisplay:10.37,2013-09-03 04:01:00,
2013-09-03 00:02:00,59.9,56.0,29.77,South,180,0.0,0.0,87,0.00,RA,,0.00,WeatherDisplay:10.37,2013-09-03 04:02:00,
2013-09-03 00:07:00,59.9,55.7,29.77,North,0,0.0,0.0,86,0.00,RA,,0.00,WeatherDisplay:10.37,2013-09-03 04:07:00,
2013-09-03 00:12:00,59.7,55.5,29.77,North,0,0.0,0.0,86,0.00,CLR,,0.00,WeatherDisplay:10.37,2013-09-03 04:12:00,
2013-09-03 00:17:00,59.5,55.3,29.77,NNW,338,0.0,0.0,86,0.00,CLR,,0.00,WeatherDisplay:10.37,2013-09-03 04:17:00,
2013-09-03 00:22:00,59.2,55.0,29.77,NW,315,0.0,0.0,86,0.00,CLR,,0.00,WeatherDisplay:10.37,2013-09-03 04:22:00,
2013-09-03 00:27:00,59.0,55.1,29.77,NW,315,0.0,0.0,87,0.00,CLR,,0.00,WeatherDisplay:10.37,2013-09-03 04:27:00,
2013-09-03 00:33:00,58.8,55.3,29.77,NW,315,0.0,0.0,88,0.00,CLR,,0.00,WeatherDisplay:10.37,2013-09-03 04:33:00,
2013-09-03 00:38:00,58.5,54.9,29.77,NW,315,0.0,0.0,88,0.00,CLR,,0.00,WeatherDisplay:10.37,2013-09-03 04:38:00,
2013-09-03 00:43:00,58.3,55.1,29.77,NW,315,0.0,0.0,89,0.00,CLR,,0.00,WeatherDisplay:10.37,2013-09-03 04:43:00,
2013-09-03 00:48:00,58.1,54.9,29.77,NW,315,0.0,0.0,89,0.00,CLR,,0.00,WeatherDisplay:10.37,2013-09-03 04:48:00,
2013-09-03 00:53:00,57.9,54.7,29.77,South,180,0.0,0.0,89,0.00,CLR,,0.00,WeatherDisplay:10.37,2013-09-03 04:53:00,
2013-09-03 00:58:00,57.9,55.0,29.77,South,180,0.0,0.0,90,0.00,CLR,,0.00,WeatherDisplay:10.37,2013-09-03 04:58:00,
2013-09-03 01:03:00,57.9,55.0,29.77,North,0,0.0,0.0,90,0.00,CLR,,0.00,WeatherDisplay:10.37,2013-09-03 05:03:00,
2013-09-03 01:08:00,57.9,55.3,29.77,SE,135,0.0,0.0,91,0.00,CLR,,0.00,WeatherDisplay:10.37,2013-09-03 05:08:00,
2013-09-03 01:13:00,57.9,55.3,29.77,NE,45,0.0,0.0,91,0.00,CLR,,0.00,WeatherDisplay:10.37,2013-09-03 05:13:00,
2013-09-03 01:18:00,58.1,55.5,29.77,NE,45,0.0,0.0,91,0.00,CLR,,0.00,WeatherDisplay:10.37,2013-09-03 05:18:00,
2013-09-03 01:23:00,58.1,55.5,29.77,SE,135,0.0,0.0,91,0.00,CLR,,0.00,WeatherDisplay:10.37,2013-09-03 05:23:00,
2013-09-03 01:28:00,58.1,55.5,29.77,East,90,0.0,0.0,91,0.00,CLR,,0.00,WeatherDisplay:10.37,2013-09-03 05:28:00,
2013-09-03 01:33:00,58.3,55.7,29.78,SE,135,0.0,0.0,91,0.00,CLR,,0.00,WeatherDisplay:10.37,2013-09-03 05:33:00,
2013-09-03 01:38:00,58.5,55.8,29.78,South,180,0.0,0.0,91,0.00,CLR,,0.00,WeatherDisplay:10.37,2013-09-03 05:38:00,
2013-09-03 01:43:00,58.6,56.0,29.78,South,180,0.0,0.0,91,0.00,CLR,,0.00,WeatherDisplay:10.37,2013-09-03 05:43:00,
2013-09-03 01:48:00,58.6,56.0,29.78,South,180,0.0,0.0,91,0.00,CLR,,0.00,WeatherDisplay:10.37,2013-09-03 05:48:00,
2013-09-03 01:53:00,58.5,55.5,29.78,South,180,0.0,0.0,90,0.00,CLR,,0.00,WeatherDisplay:10.37,2013-09-03 05:53:00,
2013-09-03 01:58:00,58.1,55.5,29.78,East,90,0.0,0.0,91,0.00,CLR,,0.00,WeatherDisplay:10.37,2013-09-03 05:58:00,
2013-09-03 02:03:00,57.9,55.3,29.78,East,90,0.0,0.0,91,0.00,CLR,,0.00,WeatherDisplay:10.37,2013-09-03 06:03:00,
2013-09-03 02:08:00,57.6,55.0,29.78,East,90,0.0,0.0,91,0.00,CLR,,0.00,WeatherDisplay:10.37,2013-09-03 06:08:00,
2013-09-03 02:13:00,57.6,55.3,29.79,West,270,0.0,1.2,92,0.00,CLR,,0.00,WeatherDisplay:10.37,2013-09-03 06:13:00,
2013-09-03 02:18:00,57.7,55.4,29.78,West,270,0.0,0.0,92,0.00,CLR,,0.00,WeatherDisplay:10.37,2013-09-03 06:18:00,
2013-09-03 02:23:00,57.7,55.7,29.79,West,270,0.0,0.0,93,0.00,CLR,,0.00,WeatherDisplay:10.37,2013-09-03 06:23:00,
2013-09-03 02:28:00,57.9,55.9,29.78,East,90,0.0,0.0,93,0.00,CLR,,0.00,WeatherDisplay:10.37,2013-09-03 06:28:00,
2013-09-03 02:33:00,57.9,56.2,29.79,SE,135,0.0,0.0,94,0.00,CLR,,0.00,WeatherDisplay:10.37,2013-09-03 06:33:00,
2013-09-03 02:38:00,58.1,56.4,29.78,SE,135,0.0,0.0,94,0.00,CLR,,0.00,WeatherDisplay:10.37,2013-09-03 06:38:00,
2013-09-03 02:43:00,58.1,56.4,29.79,SE,135,0.0,0.0,94,0.00,CLR,,0.00,WeatherDisplay:10.37,2013-09-03 06:43:00,
2013-09-03 02:48:00,58.1,56.4,29.78,North,0,0.0,0.0,94,0.00,CLR,,0.00,WeatherDisplay:10.37,2013-09-03 06:48:00,
2013-09-03 02:53:00,57.9,56.2,29.78,North,0,0.0,0.0,94,0.00,CLR,,0.00,WeatherDisplay:10.37,2013-09-03 06:53:00,
2013-09-03 02:58:00,57.7,56.0,29.79,North,0,0.0,0.0,94,0.00,CLR,,0.00,WeatherDisplay:10.37,2013-09-03 06:58:00,
2013-09-03 03:03:00,57.6,55.8,29.79,North,0,0.0,0.0,94,0.00,CLR,,0.00,WeatherDisplay:10.37,2013-09-03 07:03:00,
2013-09-03 03:08:00,57.2,55.5,29.79,North,0,0.0,0.0,94,0.00,CLR,,0.00,WeatherDisplay:10.37,2013-09-03 07:08:00,
2013-09-03 03:13:00,57.2,55.5,29.80,North,0,0.0,0.0,94,0.00,CLR,,0.00,WeatherDisplay:10.37,2013-09-03 07:13:00,
2013-09-03 03:18:00,57.0,55.6,29.79,North,0,0.0,0.0,95,0.00,CLR,,0.00,WeatherDisplay:10.37,2013-09-03 07:18:00,
2013-09-03 03:23:00,57.0,55.9,29.80,North,0,0.0,0.0,96,0.00,CLR,,0.00,WeatherDisplay:10.37,2013-09-03 07:23:00,
2013-09-03 03:28:00,57.0,55.9,29.80,North,0,0.0,0.0,96,0.00,CLR,,0.00,WeatherDisplay:10.37,2013-09-03 07:28:00,
2013-09-03 03:33:00,57.0,55.9,29.80,SW,225,0.0,1.2,96,0.00,CLR,,0.00,WeatherDisplay:10.37,2013-09-03 07:33:00,
2013-09-03 03:38:00,56.8,56.0,29.80,SW,225,0.0,0.0,97,0.00,CLR,,0.00,WeatherDisplay:10.37,2013-09-03 07:38:00,
2013-09-03 03:43:00,56.8,56.0,29.80,NW,315,0.0,0.0,97,0.00,CLR,,0.00,WeatherDisplay:10.37,2013-09-03 07:43:00,
2013-09-03 03:48:00,56.8,56.0,29.80,NW,315,0.0,0.0,97,0.00,CLR,,0.00,WeatherDisplay:10.37,2013-09-03 07:48:00,
2013-09-03 03:53:00,56.7,55.8,29.80,South,180,0.0,1.2,97,0.00,CLR,,0.00,WeatherDisplay:10.37,2013-09-03 07:53:00,
2013-09-03 03:58:00,56.8,56.0,29.81,South,180,0.0,0.0,97,0.00,CLR,,0.00,WeatherDisplay:10.37,2013-09-03 07:58:00,
2013-09-03 04:03:00,56.8,56.3,29.81,South,180,0.0,1.2,98,0.00,CLR,,0.00,WeatherDisplay:10.37,2013-09-03 08:03:00,
2013-09-03 04:08:00,57.0,56.2,29.81,SSW,202,0.0,1.2,97,0.00,CLR,,0.00,WeatherDisplay:10.37,2013-09-03 08:08:00,
2013-09-03 04:13:00,56.8,56.0,29.82,SW,225,0.0,0.0,97,0.00,CLR,,0.00,WeatherDisplay:10.37,2013-09-03 08:13:00,
2013-09-03 04:18:00,56.8,56.0,29.82,South,180,0.0,0.0,97,0.00,CLR,,0.00,WeatherDisplay:10.37,2013-09-03 08:18:00,
2013-09-03 04:23:00,57.0,56.2,29.82,South,180,0.0,1.2,97,0.00,CLR,,0.00,WeatherDisplay:10.37,2013-09-03 08:23:00,
2013-09-03 04:28:00,57.0,56.2,29.82,South,180,0.0,0.0,97,0.00,CLR,,0.00,WeatherDisplay:10.37,2013-09-03 08:28:00,
2013-09-03 04:33:00,57.2,56.1,29.82,South,180,0.0,0.0,96,0.00,CLR,,0.00,WeatherDisplay:10.37,2013-09-03 08:33:00,
2013-09-03 04:38:00,57.2,56.1,29.82,SW,225,0.0,0.0,96,0.00,CLR,,0.00,WeatherDisplay:10.37,2013-09-03 08:38:00,
2013-09-03 04:43:00,57.2,56.1,29.82,South,180,0.0,0.0,96,0.00,CLR,,0.00,WeatherDisplay:10.37,2013-09-03 08:43:00,
2013-09-03 04:48:00,57.2,56.1,29.83,SW,225,0.0,0.0,96,0.00,CLR,,0.00,WeatherDisplay:10.37,2013-09-03 08:48:00,
2013-09-03 04:53:00,57.2,56.1,29.83,SW,225,0.0,0.0,96,0.00,CLR,,0.00,WeatherDisplay:10.37,2013-09-03 08:53:00,
2013-09-03 04:58:00,57.4,56.2,29.83,NE,45,0.0,0.0,96,0.00,CLR,,0.00,WeatherDisplay:10.37,2013-09-03 08:58:00,
2013-09-03 05:03:00,57.6,56.4,29.83,SE,135,0.0,1.2,96,0.00,CLR,,0.00,WeatherDisplay:10.37,2013-09-03 09:03:00,
2013-09-03 05:08:00,57.7,56.6,29.83,SE,135,0.0,0.0,96,0.00,CLR,,0.00,WeatherDisplay:10.37,2013-09-03 09:08:00,
2013-09-03 05:13:00,57.7,56.9,29.84,North,0,0.0,0.0,97,0.00,CLR,,0.00,WeatherDisplay:10.37,2013-09-03 09:13:00,
2013-09-03 05:18:00,57.9,57.1,29.84,North,0,0.0,0.0,97,0.00,CLR,,0.00,WeatherDisplay:10.37,2013-09-03 09:18:00,
2013-09-03 05:23:00,57.9,57.1,29.84,SW,225,0.0,1.2,97,0.00,CLR,,0.00,WeatherDisplay:10.37,2013-09-03 09:23:00,
2013-09-03 05:28:00,58.1,57.3,29.85,SE,135,0.0,0.0,97,0.00,CLR,,0.00,WeatherDisplay:10.37,2013-09-03 09:28:00,
2013-09-03 05:33:00,58.3,57.4,29.85,SE,135,0.0,0.0,97,0.00,CLR,,0.00,WeatherDisplay:10.37,2013-09-03 09:33:00,
2013-09-03 05:38:00,58.5,57.6,29.85,SW,225,0.0,0.0,97,0.00,CLR,,0.00,WeatherDisplay:10.37,2013-09-03 09:38:00,
2013-09-03 05:43:00,58.5,57.3,29.85,SW,225,0.0,0.0,96,0.00,CLR,,0.00,WeatherDisplay:10.37,2013-09-03 09:43:00,
2013-09-03 05:48:00,58.5,57.3,29.85,SW,225,0.0,0.0,96,0.00,CLR,,0.00,WeatherDisplay:10.37,2013-09-03 09:48:00,
2013-09-03 05:53:00,58.5,57.3,29.85,SW,225,0.0,0.0,96,0.00,CLR,,0.00,WeatherDisplay:10.37,2013-09-03 09:53:00,
2013-09-03 05:58:00,58.6,57.5,29.85,SW,225,0.0,0.0,96,0.00,CLR,,0.00,WeatherDisplay:10.37,2013-09-03 09:58:00,
2013-09-03 06:03:00,58.6,57.5,29.86,SW,225,0.0,0.0,96,0.00,CLR,,0.00,WeatherDisplay:10.37,2013-09-03 10:03:00,
2013-09-03 06:08:00,58.8,57.7,29.86,SE,135,0.0,0.0,96,0.00,CLR,,0.00,WeatherDisplay:10.37,2013-09-03 10:08:00,
2013-09-03 06:13:00,58.8,57.7,29.86,North,0,0.0,0.0,96,0.00,CLR,,0.00,WeatherDisplay:10.37,2013-09-03 10:13:00,
2013-09-03 06:18:00,58.8,57.7,29.86,East,90,0.0,0.0,96,0.00,CLR,,0.00,WeatherDisplay:10.37,2013-09-03 10:18:00,
2013-09-03 06:23:00,58.8,57.7,29.86,East,90,0.0,0.0,96,0.00,CLR,,0.00,WeatherDisplay:10.37,2013-09-03 10:23:00,
2013-09-03 06:28:00,59.0,57.6,29.87,South,180,0.0,1.2,95,0.00,CLR,,0.00,WeatherDisplay:10.37,2013-09-03 10:28:00,
2013-09-03 06:33:00,59.0,57.6,29.87,SE,135,0.0,1.2,95,0.00,CLR,,0.00,WeatherDisplay:10.37,2013-09-03 10:33:00,
2013-09-03 06:38:00,59.0,57.6,29.87,SW,225,0.0,0.0,95,0.00,CLR,,0.00,WeatherDisplay:10.37,2013-09-03 10:38:00,
2013-09-03 06:43:00,58.8,57.7,29.87,SW,225,0.0,0.0,96,0.00,CLR,,0.00,WeatherDisplay:10.37,2013-09-03 10:43:00,
2013-09-03 06:48:00,58.8,57.7,29.87,SW,225,0.0,0.0,96,0.00,CLR,,0.00,WeatherDisplay:10.37,2013-09-03 10:48:00,
2013-09-03 06:53:00,58.8,57.7,29.87,North,0,0.0,0.0,96,0.00,CLR,,0.00,WeatherDisplay:10.37,2013-09-03 10:53:00,
2013-09-03 06:58:00,58.8,57.7,29.87,NE,45,0.0,0.0,96,0.00,CLR,,0.00,WeatherDisplay:10.37,2013-09-03 10:58:00,
2013-09-03 07:03:00,58.8,57.7,29.86,NE,45,0.0,0.0,96,0.00,CLR,,0.00,WeatherDisplay:10.37,2013-09-03 11:03:00,
2013-09-03 07:08:00,59.0,57.3,29.86,NE,45,0.0,0.0,94,0.00,CLR,,0.00,WeatherDisplay:10.37,2013-09-03 11:08:00,
2013-09-03 07:13:00,59.0,57.6,29.86,NE,45,0.0,0.0,95,0.00,CLR,,0.00,WeatherDisplay:10.37,2013-09-03 11:13:00,
2013-09-03 07:18:00,59.2,57.7,29.86,NE,45,0.0,0.0,95,0.00,CLR,,0.00,WeatherDisplay:10.37,2013-09-03 11:18:00,
2013-09-03 07:23:00,59.2,57.7,29.87,NE,45,0.0,0.0,95,0.00,CLR,,0.00,WeatherDisplay:10.37,2013-09-03 11:23:00,
2013-09-03 07:26:00,74.5,60.1,29.77,West,270,0.0,1.0,61,0.00,CLR,CLR,0.00,WeatherDisplay:10.37,2013-09-03 11:26:00,
2013-09-03 07:27:00,74.5,60.1,29.77,West,270,0.0,0.0,61,0.00,CLR,CLR,0.00,WeatherDisplay:10.37,2013-09-03 11:27:00,
2013-09-03 07:28:00,59.2,57.7,29.86,SW,225,0.0,0.0,95,0.00,CLR,,0.00,WeatherDisplay:10.37,2013-09-03 11:28:00,
2013-09-03 07:29:00,74.5,60.1,29.77,West,270,0.0,0.0,61,0.00,CLR,CLR,0.00,WeatherDisplay:10.37,2013-09-03 11:29:00,
2013-09-03 07:30:00,74.5,60.1,29.77,West,270,0.0,0.0,61,0.00,CLR,CLR,0.00,WeatherDisplay:10.37,2013-09-03 11:30:00,
2013-09-03 07:33:00,59.4,57.9,29.86,SW,225,0.0,0.0,95,0.00,CLR,,0.00,WeatherDisplay:10.37,2013-09-03 11:33:00,
2013-09-03 07:38:00,59.4,57.9,29.87,SW,225,0.0,0.0,95,0.00,CLR,,0.00,WeatherDisplay:10.37,2013-09-03 11:38:00,
2013-09-03 07:43:00,59.5,58.1,29.86,SW,225,0.0,0.0,95,0.00,CLR,,0.00,WeatherDisplay:10.37,2013-09-03 11:43:00,
2013-09-03 07:48:00,59.5,58.1,29.87,NE,45,0.0,0.0,95,0.00,CLR,,0.00,WeatherDisplay:10.37,2013-09-03 11:48:00,
2013-09-03 07:53:00,59.5,58.1,29.87,NE,45,0.0,0.0,95,0.00,CLR,,0.00,WeatherDisplay:10.37,2013-09-03 11:53:00,
2013-09-03 07:58:00,59.7,58.0,29.87,SE,135,0.0,0.0,94,0.00,CLR,,0.00,WeatherDisplay:10.37,2013-09-03 11:58:00,
2013-09-03 08:03:00,59.7,58.0,29.87,NW,315,0.0,1.2,94,0.00,CLR,,0.00,WeatherDisplay:10.37,2013-09-03 12:03:00,
2013-09-03 08:08:00,59.7,58.0,29.87,NW,315,0.0,1.2,94,0.00,CLR,,0.00,WeatherDisplay:10.37,2013-09-03 12:08:00,
2013-09-03 08:13:00,60.1,57.7,29.88,North,0,0.0,0.0,92,0.00,CLR,,0.00,WeatherDisplay:10.37,2013-09-03 12:13:00,
2013-09-03 08:18:00,60.3,57.6,29.88,SE,135,0.0,0.0,91,0.00,CLR,,0.00,WeatherDisplay:10.37,2013-09-03 12:18:00,
2013-09-03 08:23:00,60.3,57.0,29.87,SE,135,0.0,0.0,89,0.00,CLR,,0.00,WeatherDisplay:10.37,2013-09-03 12:23:00,
2013-09-03 08:28:00,60.4,56.6,29.88,East,90,0.0,0.0,87,0.00,CLR,,0.00,WeatherDisplay:10.37,2013-09-03 12:28:00,
2013-09-03 08:33:00,60.6,56.4,29.88,NW,315,0.0,0.0,86,0.00,CLR,,0.00,WeatherDisplay:10.37,2013-09-03 12:33:00,
2013-09-03 08:38:00,60.8,55.9,29.88,NE,45,0.0,0.0,84,0.00,CLR,,0.00,WeatherDisplay:10.37,2013-09-03 12:38:00,
2013-09-03 08:43:00,61.0,56.1,29.88,SE,135,0.0,0.0,84,0.00,CLR,,0.00,WeatherDisplay:10.37,2013-09-03 12:43:00,
2013-09-03 08:48:00,61.3,56.5,29.89,West,270,0.0,1.2,84,0.00,CLR,,0.00,WeatherDisplay:10.37,2013-09-03 12:48:00,
2013-09-03 08:53:00,61.5,56.3,29.90,SE,135,0.0,1.2,83,0.00,CLR,,0.00,WeatherDisplay:10.37,2013-09-03 12:53:00,
2013-09-03 08:58:00,61.7,56.1,29.90,South,180,0.0,0.0,82,0.00,CLR,,0.00,WeatherDisplay:10.37,2013-09-03 12:58:00,
2013-09-03 09:03:00,62.1,56.5,29.91,SE,135,0.0,0.0,82,0.00,CLR,,0.00,WeatherDisplay:10.37,2013-09-03 13:03:00,
2013-09-03 09:08:00,62.4,56.9,29.91,South,180,0.0,0.0,82,0.00,CLR,,0.00,WeatherDisplay:10.37,2013-09-03 13:08:00,
2013-09-03 09:13:00,62.8,56.9,29.92,West,270,0.0,1.2,81,0.00,CLR,,0.00,WeatherDisplay:10.37,2013-09-03 13:13:00,
2013-09-03 09:18:00,63.3,57.0,29.93,North,0,0.0,0.0,80,0.00,CLR,,0.00,WeatherDisplay:10.37,2013-09-03 13:18:00,
2013-09-03 09:23:00,63.7,56.7,29.93,North,0,0.0,0.0,78,0.00,CLR,,0.00,WeatherDisplay:10.37,2013-09-03 13:23:00,
2013-09-03 09:28:00,64.4,57.4,29.93,North,0,0.0,0.0,78,0.00,CLR,,0.00,WeatherDisplay:10.37,2013-09-03 13:28:00,
2013-09-03 09:33:00,65.1,57.7,29.93,North,0,0.0,1.2,77,0.00,CLR,,0.00,WeatherDisplay:10.37,2013-09-03 13:33:00,
2013-09-03 09:38:00,65.7,57.9,29.93,NW,315,0.0,0.0,76,0.00,CLR,,0.00,WeatherDisplay:10.37,2013-09-03 13:38:00,
2013-09-03 09:43:00,66.0,57.1,29.93,West,270,0.0,0.0,73,0.00,CLR,,0.00,WeatherDisplay:10.37,2013-09-03 13:43:00,
2013-09-03 09:48:00,66.4,56.3,29.93,NE,45,0.0,0.0,70,0.00,CLR,,0.00,WeatherDisplay:10.37,2013-09-03 13:48:00,
2013-09-03 09:53:00,67.1,57.4,29.93,NW,315,0.0,0.0,71,0.00,CLR,,0.00,WeatherDisplay:10.37,2013-09-03 13:53:00,
2013-09-03 09:58:00,68.2,57.2,29.93,SE,135,0.0,0.0,68,0.00,CLR,,0.00,WeatherDisplay:10.37,2013-09-03 13:58:00,
2013-09-03 10:03:00,68.9,56.6,29.93,SE,135,0.0,0.0,65,0.00,CLR,,0.00,WeatherDisplay:10.37,2013-09-03 14:03:00,
2013-09-03 10:08:00,69.6,57.3,29.93,East,90,0.0,0.0,65,0.00,CLR,,0.00,WeatherDisplay:10.37,2013-09-03 14:08:00,
2013-09-03 10:13:00,70.2,57.4,29.93,NE,45,0.0,0.0,64,0.00,CLR,,0.00,WeatherDisplay:10.37,2013-09-03 14:13:00,
2013-09-03 10:18:00,70.7,57.5,29.94,NE,45,0.0,0.0,63,0.00,CLR,,0.00,WeatherDisplay:10.37,2013-09-03 14:18:00,
2013-09-03 10:23:00,71.2,57.5,29.94,NW,315,0.0,0.0,62,0.00,CLR,,0.00,WeatherDisplay:10.37,2013-09-03 14:23:00,
2013-09-03 10:28:00,70.7,57.0,29.94,SE,135,0.0,0.0,62,0.00,CLR,,0.00,WeatherDisplay:10.37,2013-09-03 14:28:00,
2013-09-03 10:33:00,70.9,56.8,29.94,North,0,0.0,0.0,61,0.00,CLR,,0.00,WeatherDisplay:10.37,2013-09-03 14:33:00,
2013-09-03 10:38:00,71.1,57.4,29.95,SW,225,0.0,0.0,62,0.00,CLR,,0.00,WeatherDisplay:10.37,2013-09-03 14:38:00,
2013-09-03 10:43:00,71.6,56.0,29.95,SE,135,0.0,0.0,58,0.00,CLR,,0.00,WeatherDisplay:10.37,2013-09-03 14:43:00,
2013-09-03 10:48:00,71.6,57.0,29.95,West,270,0.0,0.0,60,0.00,CLR,,0.00,WeatherDisplay:10.37,2013-09-03 14:48:00,
2013-09-03 10:53:00,72.1,57.5,29.95,West,270,0.0,0.0,60,0.00,CLR,,0.00,WeatherDisplay:10.37,2013-09-03 14:53:00,
2013-09-03 10:58:00,72.0,56.8,29.96,North,0,0.0,0.0,59,0.00,CLR,,0.00,WeatherDisplay:10.37,2013-09-03 14:58:00,
2013-09-03 11:03:00,71.6,57.0,29.96,NW,315,0.0,0.0,60,0.00,CLR,,0.00,WeatherDisplay:10.37,2013-09-03 15:03:00,
2013-09-03 11:08:00,72.5,57.8,29.96,SE,135,0.0,0.0,60,0.00,CLR,,0.00,WeatherDisplay:10.37,2013-09-03 15:08:00,
2013-09-03 11:13:00,73.0,57.4,29.96,West,270,0.0,0.0,58,0.00,CLR,,0.00,WeatherDisplay:10.37,2013-09-03 15:13:00,
2013-09-03 11:18:00,73.2,58.0,29.96,SW,225,0.0,0.0,59,0.00,CLR,,0.00,WeatherDisplay:10.37,2013-09-03 15:18:00,
2013-09-03 11:24:00,74.1,57.9,29.97,NW,315,0.0,0.0,57,0.00,CLR,,0.00,WeatherDisplay:10.37,2013-09-03 15:24:00,
2013-09-03 11:29:00,74.5,57.8,29.97,North,0,0.0,0.0,56,0.00,CLR,,0.00,WeatherDisplay:10.37,2013-09-03 15:29:00,
2013-09-03 11:34:00,74.1,57.4,29.97,South,180,0.0,0.0,56,0.00,CLR,,0.00,WeatherDisplay:10.37,2013-09-03 15:34:00,
2013-09-03 11:39:00,73.8,58.1,29.97,SW,225,0.0,0.0,58,0.00,CLR,,0.00,WeatherDisplay:10.37,2013-09-03 15:39:00,
2013-09-03 11:44:00,72.1,57.0,29.97,NE,45,0.0,0.0,59,0.00,CLR,,0.00,WeatherDisplay:10.37,2013-09-03 15:44:00,
2013-09-03 11:49:00,71.8,58.1,29.97,SW,225,0.0,0.0,62,0.00,CLR,,0.00,WeatherDisplay:10.37,2013-09-03 15:49:00,
2013-09-03 11:54:00,72.7,58.9,29.97,East,90,0.0,0.0,62,0.00,CLR,,0.00,WeatherDisplay:10.37,2013-09-03 15:54:00,
2013-09-03 11:59:00,73.9,58.2,29.97,NW,315,0.0,0.0,58,0.00,CLR,,0.00,WeatherDisplay:10.37,2013-09-03 15:59:00,
2013-09-03 12:04:00,74.5,58.2,29.97,NW,315,0.0,0.0,57,0.00,CLR,,0.00,WeatherDisplay:10.37,2013-09-03 16:04:00,
2013-09-03 12:09:00,74.3,58.6,29.98,SW,225,0.0,0.0,58,0.00,CLR,,0.00,WeatherDisplay:10.37,2013-09-03 16:09:00,
2013-09-03 12:14:00,74.7,58.4,29.97,WNW,292,0.0,0.0,57,0.00,CLR,,0.00,WeatherDisplay:10.37,2013-09-03 16:14:00,
2013-09-03 12:19:00,75.0,58.3,29.97,NE,45,0.0,0.0,56,0.00,CLR,,0.00,WeatherDisplay:10.37,2013-09-03 16:19:00,
2013-09-03 12:24:00,74.5,57.3,29.97,NE,45,0.0,0.0,55,0.00,CLR,,0.00,WeatherDisplay:10.37,2013-09-03 16:24:00,
2013-09-03 12:29:00,74.8,58.1,29.97,NW,315,0.0,0.0,56,0.00,CLR,,0.00,WeatherDisplay:10.37,2013-09-03 16:29:00,
2013-09-03 12:34:00,74.7,57.4,29.97,West,270,0.0,0.0,55,0.00,CLR,,0.00,WeatherDisplay:10.37,2013-09-03 16:34:00,
2013-09-03 12:39:00,74.7,57.9,29.96,NW,315,0.0,0.0,56,0.00,CLR,,0.00,WeatherDisplay:10.37,2013-09-03 16:39:00,
2013-09-03 12:44:00,74.5,57.8,29.96,West,270,0.0,0.0,56,0.00,CLR,,0.00,WeatherDisplay:10.37,2013-09-03 16:44:00,
2013-09-03 12:49:00,74.1,57.9,29.96,SW,225,0.0,0.0,57,0.00,CLR,,0.00,WeatherDisplay:10.37,2013-09-03 16:49:00,
2013-09-03 12:54:00,74.3,58.1,29.96,SE,135,0.0,0.0,57,0.00,CLR,,0.00,WeatherDisplay:10.37,2013-09-03 16:54:00,
2013-09-03 12:59:00,74.7,57.9,29.95,West,270,0.0,0.0,56,0.00,CLR,,0.00,WeatherDisplay:10.37,2013-09-03 16:59:00,
2013-09-03 13:04:00,74.7,57.9,29.95,NW,315,0.0,0.0,56,0.00,CLR,,0.00,WeatherDisplay:10.37,2013-09-03 17:04:00,
2013-09-03 13:09:00,74.7,57.9,29.95,North,0,0.0,0.0,56,0.00,CLR,,0.00,WeatherDisplay:10.37,2013-09-03 17:09:00,
2013-09-03 13:14:00,74.3,58.1,29.95,East,90,0.0,0.0,57,0.00,CLR,,0.00,WeatherDisplay:10.37,2013-09-03 17:14:00,
2013-09-03 13:19:00,73.8,57.6,29.95,South,180,0.0,0.0,57,0.00,CLR,,0.00,WeatherDisplay:10.37,2013-09-03 17:19:00,
2013-09-03 13:24:00,73.8,58.5,29.95,NW,315,0.0,0.0,59,0.00,CLR,,0.00,WeatherDisplay:10.37,2013-09-03 17:24:00,
2013-09-03 13:29:00,73.8,58.5,29.95,NW,315,0.0,0.0,59,0.00,CLR,,0.00,WeatherDisplay:10.37,2013-09-03 17:29:00,
2013-09-03 13:34:00,73.8,58.1,29.95,West,270,0.0,0.0,58,0.00,CLR,,0.00,WeatherDisplay:10.37,2013-09-03 17:34:00,
2013-09-03 13:39:00,74.3,58.6,29.95,NW,315,0.0,0.0,58,0.00,CLR,,0.00,WeatherDisplay:10.37,2013-09-03 17:39:00,
2013-09-03 13:44:00,73.9,58.2,29.94,West,270,0.0,0.0,58,0.00,CLR,,0.00,WeatherDisplay:10.37,2013-09-03 17:44:00,
2013-09-03 13:49:00,73.2,59.0,29.94,SW,225,0.0,0.0,61,0.00,CLR,,0.00,WeatherDisplay:10.37,2013-09-03 17:49:00,
2013-09-03 13:54:00,73.0,58.8,29.93,North,0,0.0,0.0,61,0.00,CLR,,0.00,WeatherDisplay:10.37,2013-09-03 17:54:00,
2013-09-03 13:59:00,73.4,58.7,29.93,West,270,0.0,0.0,60,0.00,CLR,,0.00,WeatherDisplay:10.37,2013-09-03 17:59:00,
2013-09-03 14:04:00,73.4,59.1,29.93,SW,225,0.0,0.0,61,0.00,CLR,,0.00,WeatherDisplay:10.37,2013-09-03 18:04:00,
2013-09-03 14:09:00,73.0,58.8,29.93,West,270,0.0,0.0,61,0.00,CLR,,0.00,WeatherDisplay:10.37,2013-09-03 18:09:00,
2013-09-03 14:14:00,73.4,58.2,29.93,West,270,0.0,0.0,59,0.00,CLR,,0.00,WeatherDisplay:10.37,2013-09-03 18:14:00,
2013-09-03 14:19:00,73.8,59.9,29.92,SSW,202,0.0,0.0,62,0.00,CLR,,0.00,WeatherDisplay:10.37,2013-09-03 18:19:00,
2013-09-03 14:24:00,74.7,59.9,29.92,SW,225,0.0,0.0,60,0.00,CLR,,0.00,WeatherDisplay:10.37,2013-09-03 18:24:00,
2013-09-03 14:29:00,75.0,58.8,29.92,West,270,0.0,0.0,57,0.00,CLR,,0.00,WeatherDisplay:10.37,2013-09-03 18:29:00,
2013-09-03 14:34:00,74.7,58.4,29.92,SW,225,0.0,0.0,57,0.00,CLR,,0.00,WeatherDisplay:10.37,2013-09-03 18:34:00,
2013-09-03 14:39:00,74.7,58.9,29.92,West,270,0.0,0.0,58,0.00,CLR,,0.00,WeatherDisplay:10.37,2013-09-03 18:39:00,
2013-09-03 14:44:00,74.8,59.1,29.91,East,90,0.0,0.0,58,0.00,CLR,,0.00,WeatherDisplay:10.37,2013-09-03 18:44:00,
2013-09-03 14:49:00,74.7,58.4,29.91,West,270,0.0,0.0,57,0.00,CLR,,0.00,WeatherDisplay:10.37,2013-09-03 18:49:00,
2013-09-03 14:54:00,74.3,58.6,29.91,NW,315,0.0,0.0,58,0.00,CLR,,0.00,WeatherDisplay:10.37,2013-09-03 18:54:00,
2013-09-03 14:59:00,73.9,58.7,29.91,NW,315,0.0,0.0,59,0.00,CLR,,0.00,WeatherDisplay:10.37,2013-09-03 18:59:00,
2013-09-03 15:04:00,73.8,58.5,29.90,West,270,0.0,0.0,59,0.00,CLR,,0.00,WeatherDisplay:10.37,2013-09-03 19:04:00,
2013-09-03 15:09:00,73.2,59.0,29.90,NW,315,0.0,0.0,61,0.00,CLR,,0.00,WeatherDisplay:10.37,2013-09-03 19:09:00,
2013-09-03 15:14:00,73.6,58.8,29.90,West,270,0.0,0.0,60,0.00,CLR,,0.00,WeatherDisplay:10.37,2013-09-03 19:14:00,
2013-09-03 15:19:00,73.2,59.0,29.89,East,90,0.0,0.0,61,0.00,CLR,,0.00,WeatherDisplay:10.37,2013-09-03 19:19:00,
2013-09-03 15:24:00,73.9,59.2,29.89,West,270,0.0,1.2,60,0.00,CLR,,0.00,WeatherDisplay:10.37,2013-09-03 19:24:00,
2013-09-03 15:29:00,74.5,60.1,29.88,NW,315,0.0,0.0,61,0.00,CLR,,0.00,WeatherDisplay:10.37,2013-09-03 19:29:00,
2013-09-03 15:34:00,74.5,59.2,29.88,West,270,0.0,0.0,59,0.00,CLR,,0.00,WeatherDisplay:10.37,2013-09-03 19:34:00,
2013-09-03 15:39:00,74.3,59.5,29.88,SW,225,0.0,0.0,60,0.00,CLR,,0.00,WeatherDisplay:10.37,2013-09-03 19:39:00,
2013-09-03 15:44:00,73.2,59.4,29.87,West,270,0.0,0.0,62,0.00,CLR,,0.00,WeatherDisplay:10.37,2013-09-03 19:44:00,
2013-09-03 15:49:00,73.4,59.6,29.87,NW,315,0.0,0.0,62,0.00,CLR,,0.00,WeatherDisplay:10.37,2013-09-03 19:49:00,
2013-09-03 15:54:00,73.8,59.5,29.86,SW,225,0.0,0.0,61,0.00,CLR,,0.00,WeatherDisplay:10.37,2013-09-03 19:54:00,
2013-09-03 15:59:00,74.3,59.5,29.86,NW,315,0.0,0.0,60,0.00,CLR,,0.00,WeatherDisplay:10.37,2013-09-03 19:59:00,
2013-09-03 16:04:00,74.7,59.4,29.85,NW,315,0.0,0.0,59,0.00,CLR,,0.00,WeatherDisplay:10.37,2013-09-03 20:04:00,
2013-09-03 16:09:00,74.5,60.1,29.85,West,270,0.0,0.0,61,0.00,CLR,,0.00,WeatherDisplay:10.37,2013-09-03 20:09:00,
2013-09-03 16:14:00,74.8,59.5,29.84,NW,315,0.0,0.0,59,0.00,CLR,,0.00,WeatherDisplay:10.37,2013-09-03 20:14:00,
2013-09-03 16:19:00,75.2,58.9,29.83,WNW,292,0.0,0.0,57,0.00,CLR,,0.00,WeatherDisplay:10.37,2013-09-03 20:19:00,
2013-09-03 16:24:00,76.5,60.1,29.83,NW,315,0.0,0.0,57,0.00,CLR,,0.00,WeatherDisplay:10.37,2013-09-03 20:24:00,
2013-09-03 16:29:00,77.2,59.2,29.82,South,180,0.0,0.0,54,0.00,CLR,,0.00,WeatherDisplay:10.37,2013-09-03 20:29:00,
2013-09-03 16:34:00,76.3,58.9,29.81,West,270,0.0,0.0,55,0.00,CLR,,0.00,WeatherDisplay:10.37,2013-09-03 20:34:00,
2013-09-03 16:39:00,75.0,59.7,29.81,NW,315,0.0,0.0,59,0.00,CLR,,0.00,WeatherDisplay:10.37,2013-09-03 20:39:00,
2013-09-03 16:44:00,75.2,58.9,29.80,West,270,0.0,0.0,57,0.00,CLR,,0.00,WeatherDisplay:10.37,2013-09-03 20:44:00,
2013-09-03 16:49:00,74.5,58.7,29.80,SE,135,0.0,0.0,58,0.00,CLR,,0.00,WeatherDisplay:10.37,2013-09-03 20:49:00,
2013-09-03 16:54:00,75.4,59.6,29.79,SW,225,0.0,0.0,58,0.00,CLR,,0.00,WeatherDisplay:10.37,2013-09-03 20:54:00,
2013-09-03 16:59:00,76.1,59.3,29.80,West,270,0.0,0.0,56,0.00,CLR,,0.00,WeatherDisplay:10.37,2013-09-03 20:59:00,
2013-09-03 17:04:00,76.1,59.3,29.79,West,270,0.0,0.0,56,0.00,CLR,,0.00,WeatherDisplay:10.37,2013-09-03 21:04:00,
2013-09-03 17:09:00,74.8,59.1,29.78,West,270,0.0,0.0,58,0.00,CLR,,0.00,WeatherDisplay:10.37,2013-09-03 21:09:00,
2013-09-03 17:26:00,75.2,59.0,29.78,North,0,0.0,0.0,57,0.00,CLR,,0.00,WeatherDisplay:10.37,2013-09-03 21:26:00,
2013-09-03 17:31:00,74.8,60.5,29.76,South,180,0.0,1.2,61,0.00,CLR,,0.00,WeatherDisplay:10.37,2013-09-03 21:31:00,
2013-09-03 17:36:00,75.2,59.9,29.76,West,270,0.0,0.0,59,0.00,CLR,,0.00,WeatherDisplay:10.37,2013-09-03 21:36:00,
2013-09-03 17:41:00,75.6,59.7,29.75,SW,225,0.0,0.0,58,0.00,CLR,,0.00,WeatherDisplay:10.37,2013-09-03 21:41:00,
2013-09-03 17:46:00,75.4,59.6,29.76,NW,315,0.0,0.0,58,0.00,CLR,,0.00,WeatherDisplay:10.37,2013-09-03 21:46:00,
2013-09-03 17:51:00,75.2,59.9,29.76,SW,225,0.0,0.0,59,0.00,CLR,,0.00,WeatherDisplay:10.37,2013-09-03 21:51:00,
2013-09-03 17:56:00,75.2,59.9,29.75,West,270,0.0,0.0,59,0.00,CLR,,0.00,WeatherDisplay:10.37,2013-09-03 21:56:00,
2013-09-03 18:01:00,74.5,60.1,29.75,West,270,0.0,0.0,61,0.00,CLR,,0.00,WeatherDisplay:10.37,2013-09-03 22:01:00,
2013-09-03 18:06:00,74.3,60.0,29.74,North,0,0.0,0.0,61,0.00,CLR,,0.00,WeatherDisplay:10.37,2013-09-03 22:06:00,
2013-09-03 18:11:00,74.3,60.0,29.74,West,270,0.0,0.0,61,0.00,CLR,,0.00,WeatherDisplay:10.37,2013-09-03 22:11:00,
2013-09-03 18:16:00,74.1,60.3,29.73,NW,315,0.0,0.0,62,0.00,CLR,,0.00,WeatherDisplay:10.37,2013-09-03 22:16:00,
2013-09-03 18:21:00,74.1,59.8,29.73,West,270,0.0,1.2,61,0.00,CLR,,0.00,WeatherDisplay:10.37,2013-09-03 22:21:00,
2013-09-03 18:26:00,73.8,59.9,29.73,South,180,0.0,0.0,62,0.00,CLR,,0.00,WeatherDisplay:10.37,2013-09-03 22:26:00,
2013-09-03 18:31:00,73.8,60.4,29.72,SE,135,0.0,0.0,63,0.00,CLR,,0.00,WeatherDisplay:10.37,2013-09-03 22:31:00,
2013-09-03 18:36:00,74.5,60.6,29.72,West,270,0.0,1.2,62,0.00,CLR,,0.00,WeatherDisplay:10.37,2013-09-03 22:36:00,
2013-09-03 18:41:00,74.5,60.1,29.72,NW,315,0.0,1.2,61,0.00,CLR,,0.00,WeatherDisplay:10.37,2013-09-03 22:41:00,
2013-09-03 18:46:00,74.8,60.9,29.73,SW,225,0.0,0.0,62,0.00,CLR,,0.00,WeatherDisplay:10.37,2013-09-03 22:46:00,
2013-09-03 18:51:00,74.5,60.1,29.73,SW,225,0.0,0.0,61,0.00,CLR,,0.00,WeatherDisplay:10.37,2013-09-03 22:51:00,
2013-09-03 18:56:00,73.6,60.2,29.73,NW,315,0.0,1.2,63,0.00,CLR,,0.00,WeatherDisplay:10.37,2013-09-03 22:56:00,
2013-09-03 19:01:00,73.4,60.5,29.73,SW,225,0.0,1.2,64,0.00,CLR,,0.00,WeatherDisplay:10.37,2013-09-03 23:01:00,
2013-09-03 19:06:00,73.4,60.5,29.74,North,0,0.0,1.2,64,0.00,CLR,,0.00,WeatherDisplay:10.37,2013-09-03 23:06:00,
2013-09-03 19:11:00,73.0,59.7,29.74,South,180,0.0,2.3,63,0.00,CLR,,0.00,WeatherDisplay:10.37,2013-09-03 23:11:00,
2013-09-03 19:17:00,72.9,60.0,29.74,SW,225,0.0,0.0,64,0.00,CLR,,0.00,WeatherDisplay:10.37,2013-09-03 23:17:00,
2013-09-03 19:22:00,72.3,59.5,29.75,SW,225,0.0,0.0,64,0.00,CLR,,0.00,WeatherDisplay:10.37,2013-09-03 23:22:00,
2013-09-03 19:27:00,71.4,59.5,29.75,SW,225,0.0,1.2,66,0.00,CLR,,0.00,WeatherDisplay:10.37,2013-09-03 23:27:00,
2013-09-03 19:32:00,71.1,59.5,29.75,West,270,0.0,1.2,67,0.00,CLR,,0.00,WeatherDisplay:10.37,2013-09-03 23:32:00,
2013-09-03 19:37:00,71.1,59.5,29.75,West,270,0.0,0.0,67,0.00,CLR,,0.00,WeatherDisplay:10.37,2013-09-03 23:37:00,
2013-09-03 19:42:00,70.7,59.2,29.76,West,270,0.0,0.0,67,0.00,CLR,,0.00,WeatherDisplay:10.37,2013-09-03 23:42:00,
2013-09-03 19:47:00,70.3,59.3,29.76,SE,135,0.0,0.0,68,0.00,CLR,,0.00,WeatherDisplay:10.37,2013-09-03 23:47:00,
2013-09-03 19:52:00,69.8,59.2,29.77,NE,45,0.0,0.0,69,0.00,CLR,,0.00,WeatherDisplay:10.37,2013-09-03 23:52:00,
2013-09-03 19:57:00,68.7,59.3,29.77,NE,45,0.0,1.2,72,0.00,CLR,,0.00,WeatherDisplay:10.37,2013-09-03 23:57:00,
2013-09-03 20:02:00,68.0,59.0,29.78,NE,45,0.0,0.0,73,0.00,CLR,,0.00,WeatherDisplay:10.37,2013-09-04 00:02:00,
2013-09-03 20:07:00,67.3,59.1,29.78,NE,45,0.0,0.0,75,0.00,CLR,,0.00,WeatherDisplay:10.37,2013-09-04 00:07:00,
2013-09-03 20:12:00,66.7,59.3,29.79,NE,45,0.0,0.0,77,0.00,CLR,,0.00,WeatherDisplay:10.37,2013-09-04 00:12:00,
2013-09-03 20:17:00,66.4,59.3,29.80,NE,45,0.0,0.0,78,0.00,CLR,,0.00,WeatherDisplay:10.37,2013-09-04 00:17:00,
2013-09-03 20:22:00,65.7,59.3,29.81,NE,45,0.0,0.0,80,0.00,CLR,,0.00,WeatherDisplay:10.37,2013-09-04 00:22:00,
2013-09-03 20:27:00,65.1,59.1,29.81,NE,45,0.0,0.0,81,0.00,CLR,,0.00,WeatherDisplay:10.37,2013-09-04 00:27:00,
2013-09-03 20:32:00,64.8,59.5,29.82,NE,45,0.0,0.0,83,0.00,CLR,,0.00,WeatherDisplay:10.37,2013-09-04 00:32:00,
2013-09-03 20:37:00,64.4,59.5,29.82,NE,45,0.0,0.0,84,0.00,CLR,,0.00,WeatherDisplay:10.37,2013-09-04 00:37:00,
2013-09-03 20:42:00,64.0,59.1,29.83,NW,315,0.0,0.0,84,0.00,CLR,,0.00,WeatherDisplay:10.37,2013-09-04 00:42:00,
2013-09-03 20:47:00,63.5,58.9,29.83,NW,315,0.0,0.0,85,0.00,CLR,,0.00,WeatherDisplay:10.37,2013-09-04 00:47:00,
2013-09-03 20:52:00,63.3,59.1,29.83,NW,315,0.0,0.0,86,0.00,CLR,,0.00,WeatherDisplay:10.37,2013-09-04 00:52:00,
2013-09-03 20:57:00,62.8,58.9,29.83,SW,225,0.0,0.0,87,0.00,CLR,,0.00,WeatherDisplay:10.37,2013-09-04 00:57:00,
2013-09-03 21:02:00,62.4,58.8,29.83,SW,225,0.0,0.0,88,0.00,CLR,,0.00,WeatherDisplay:10.37,2013-09-04 01:02:00,
2013-09-03 21:07:00,62.1,58.5,29.83,SW,225,0.0,0.0,88,0.00,CLR,,0.00,WeatherDisplay:10.37,2013-09-04 01:07:00,
2013-09-03 21:12:00,61.9,58.3,29.83,South,180,0.0,1.2,88,0.00,CLR,,0.00,WeatherDisplay:10.37,2013-09-04 01:12:00,
2013-09-03 21:17:00,61.5,57.9,29.83,South,180,0.0,0.0,88,0.00,CLR,,0.00,WeatherDisplay:10.37,2013-09-04 01:17:00,
2013-09-03 21:22:00,61.5,57.9,29.82,South,180,0.0,0.0,88,0.00,CLR,,0.00,WeatherDisplay:10.37,2013-09-04 01:22:00,
2013-09-03 21:27:00,61.2,58.2,29.82,South,180,0.0,0.0,90,0.00,CLR,,0.00,WeatherDisplay:10.37,2013-09-04 01:27:00,
2013-09-03 21:32:00,61.0,58.3,29.82,South,180,0.0,0.0,91,0.00,CLR,,0.00,WeatherDisplay:10.37,2013-09-04 01:32:00,
2013-09-03 21:37:00,60.8,58.2,29.82,South,180,0.0,0.0,91,0.00,CLR,,0.00,WeatherDisplay:10.37,2013-09-04 01:37:00,
2013-09-03 21:42:00,60.6,58.3,29.81,South,180,0.0,0.0,92,0.00,CLR,,0.00,WeatherDisplay:10.37,2013-09-04 01:42:00,
2013-09-03 21:47:00,60.4,58.4,29.81,South,180,0.0,0.0,93,0.00,CLR,,0.00,WeatherDisplay:10.37,2013-09-04 01:47:00,
2013-09-03 21:52:00,60.4,58.4,29.81,South,180,0.0,0.0,93,0.00,CLR,,0.00,WeatherDisplay:10.37,2013-09-04 01:52:00,
2013-09-03 21:57:00,60.1,58.3,29.81,South,180,0.0,0.0,94,0.00,CLR,,0.00,WeatherDisplay:10.37,2013-09-04 01:57:00,
2013-09-03 22:02:00,59.9,58.2,29.81,South,180,0.0,0.0,94,0.00,CLR,,0.00,WeatherDisplay:10.37,2013-09-04 02:02:00,
2013-09-03 22:07:00,59.9,58.2,29.81,South,180,0.0,0.0,94,0.00,CLR,,0.00,WeatherDisplay:10.37,2013-09-04 02:07:00,
2013-09-03 22:12:00,59.4,57.9,29.81,South,180,0.0,0.0,95,0.00,CLR,,0.00,WeatherDisplay:10.37,2013-09-04 02:12:00,
2013-09-03 22:17:00,59.2,57.7,29.81,South,180,0.0,0.0,95,0.00,CLR,,0.00,WeatherDisplay:10.37,2013-09-04 02:17:00,
2013-09-03 22:22:00,59.0,57.6,29.81,South,180,0.0,0.0,95,0.00,CLR,,0.00,WeatherDisplay:10.37,2013-09-04 02:22:00,
2013-09-03 22:27:00,58.8,57.7,29.81,South,180,0.0,0.0,96,0.00,CLR,,0.00,WeatherDisplay:10.37,2013-09-04 02:27:00,
2013-09-03 22:32:00,58.6,57.5,29.81,East,90,0.0,0.0,96,0.00,CLR,,0.00,WeatherDisplay:10.37,2013-09-04 02:32:00,
2013-09-03 22:37:00,58.6,57.8,29.81,East,90,0.0,0.0,97,0.00,CLR,,0.00,WeatherDisplay:10.37,2013-09-04 02:37:00,
2013-09-03 22:42:00,58.5,57.6,29.81,East,90,0.0,0.0,97,0.00,CLR,,0.00,WeatherDisplay:10.37,2013-09-04 02:42:00,
2013-09-03 22:47:00,58.3,57.4,29.82,East,90,0.0,0.0,97,0.00,CLR,,0.00,WeatherDisplay:10.37,2013-09-04 02:47:00,
2013-09-03 22:52:00,58.1,57.3,29.82,East,90,0.0,0.0,97,0.00,CLR,,0.00,WeatherDisplay:10.37,2013-09-04 02:52:00,
2013-09-03 22:57:00,57.7,57.2,29.82,East,90,0.0,0.0,98,0.00,CLR,,0.00,WeatherDisplay:10.37,2013-09-04 02:57:00,
2013-09-03 23:02:00,57.6,57.0,29.82,East,90,0.0,0.0,98,0.00,CLR,,0.00,WeatherDisplay:10.37,2013-09-04 03:02:00,
2013-09-03 23:07:00,57.6,57.0,29.82,East,90,0.0,0.0,98,0.00,CLR,,0.00,WeatherDisplay:10.37,2013-09-04 03:07:00,
2013-09-03 23:12:00,57.6,57.0,29.83,East,90,0.0,0.0,98,0.00,CLR,,0.00,WeatherDisplay:10.37,2013-09-04 03:12:00,
2013-09-03 23:17:00,57.6,57.3,29.83,East,90,0.0,0.0,99,0.00,CLR,,0.00,WeatherDisplay:10.37,2013-09-04 03:17:00,
2013-09-03 23:22:00,57.6,57.3,29.83,East,90,0.0,0.0,99,0.00,CLR,,0.00,WeatherDisplay:10.37,2013-09-04 03:22:00,
2013-09-03 23:27:00,57.4,57.1,29.83,East,90,0.0,0.0,99,0.00,CLR,,0.00,WeatherDisplay:10.37,2013-09-04 03:27:00,
2013-09-03 23:32:00,57.2,56.9,29.84,East,90,0.0,0.0,99,0.00,CLR,,0.00,WeatherDisplay:10.37,2013-09-04 03:32:00,
2013-09-03 23:37:00,57.0,56.7,29.84,East,90,0.0,0.0,99,0.00,CLR,,0.00,WeatherDisplay:10.37,2013-09-04 03:37:00,
2013-09-03 23:42:00,56.8,56.6,29.85,East,90,0.0,0.0,99,0.00,CLR,,0.00,WeatherDisplay:10.37,2013-09-04 03:42:00,
2013-09-03 23:47:00,56.8,56.6,29.85,East,90,0.0,0.0,99,0.00,CLR,,0.00,WeatherDisplay:10.37,2013-09-04 03:47:00,
2013-09-03 23:52:00,56.7,56.4,29.85,East,90,0.0,0.0,99,0.00,CLR,,0.00,WeatherDisplay:10.37,2013-09-04 03:52:00,
2013-09-03 23:57:00,56.7,56.4,29.85,East,90,0.0,0.0,99,0.00,CLR,,0.00,WeatherDisplay:10.37,2013-09-04 03:57:00,